Time;durP1;ratioP1;P1;durP2;ratioP2;P2;SDS_P1;SDS_P2;PMS_P1;PMS_P2;Temp;Humidity;BMP_temperature;BMP_pressure;BME280_temperature;BME280_humidity;BME280_pressure;Samples;Min_cycle;Max_cycle;Signal;HPM_P1;HPM_P2
2023/12/01 00:01:37;;;;;;;77.80;40.70;;;;;;;-0.08;100.00;160553.75;5057175;28;20013;-59
2023/12/01 00:04:02;;;;;;;85.13;44.53;;;;;;;-0.14;100.00;160537.66;5072901;28;20473;-59
2023/12/01 00:06:28;;;;;;;78.97;46.20;;;;;;;-0.26;100.00;160505.53;5067091;28;20160;-59
2023/12/01 00:08:53;;;;;;;72.32;39.63;;;;;;;-0.21;100.00;160518.91;5053382;28;20017;-59
2023/12/01 00:11:20;;;;;;;60.22;32.15;;;;;;;-0.15;100.00;160534.97;5051904;28;20041;-59
2023/12/01 00:13:45;;;;;;;66.60;34.92;;;;;;;-0.10;100.00;160548.38;5052849;28;20033;-59
2023/12/01 00:16:11;;;;;;;62.05;33.85;;;;;;;-0.11;100.00;160545.69;5052360;28;20049;-59
2023/12/01 00:18:36;;;;;;;64.85;31.45;;;;;;;-0.08;100.00;160553.75;5062221;28;20040;-59
2023/12/01 00:21:01;;;;;;;65.68;33.80;;;;;;;-0.02;100.00;160569.81;5051539;28;20048;-59
2023/12/01 00:23:29;;;;;;;61.88;34.05;;;;;;;0.02;100.00;160577.88;5052947;28;20056;-59
2023/12/01 00:25:54;;;;;;;67.63;37.17;;;;;;;0.04;100.00;160583.25;5051415;28;20110;-59
2023/12/01 00:28:19;;;;;;;62.88;33.70;;;;;;;0.00;100.00;160573.88;5052729;28;20029;-59
2023/12/01 00:30:45;;;;;;;70.40;33.58;;;;;;;0.05;100.00;160585.88;5067040;28;20049;-59
2023/12/01 00:33:10;;;;;;;62.42;34.90;;;;;;;0.06;100.00;160588.56;5072793;28;20639;-59
2023/12/01 00:35:35;;;;;;;69.72;36.13;;;;;;;0.07;100.00;160591.25;5069608;28;20051;-59
2023/12/01 00:38:01;;;;;;;61.80;34.05;;;;;;;0.05;100.00;160585.88;5070562;28;20127;-59
2023/12/01 00:40:26;;;;;;;67.38;35.28;;;;;;;0.05;100.00;160585.88;5068277;28;20064;-58
2023/12/01 00:42:51;;;;;;;71.75;38.35;;;;;;;0.04;100.00;160583.25;5052358;28;20043;-59
2023/12/01 00:45:17;;;;;;;72.68;34.70;;;;;;;-0.03;100.00;160567.13;5051122;28;20045;-59
2023/12/01 00:47:42;;;;;;;58.30;38.83;;;;;;;0.03;100.00;160581.88;5052891;28;20051;-59
2023/12/01 00:50:09;;;;;;;62.15;36.35;;;;;;;0.06;100.00;160588.56;5051059;28;20048;-59
2023/12/01 00:52:34;;;;;;;66.47;32.30;;;;;;;0.05;100.00;160585.88;5052852;28;20035;-59
2023/12/01 00:55:00;;;;;;;61.92;32.78;;;;;;;0.05;100.00;160585.88;5051030;28;20049;-59
2023/12/01 00:57:25;;;;;;;61.67;33.15;;;;;;;0.12;100.00;160606.00;5062588;28;20020;-59
2023/12/01 00:59:51;;;;;;;54.50;32.72;;;;;;;0.12;100.00;160606.00;5070839;28;20040;-58
2023/12/01 01:02:17;;;;;;;58.35;35.28;;;;;;;0.11;100.00;160602.00;5072072;28;20024;-59
2023/12/01 01:04:42;;;;;;;67.30;32.60;;;;;;;0.14;100.00;160610.00;5070431;28;20044;-59
2023/12/01 01:07:07;;;;;;;56.38;31.25;;;;;;;0.19;100.00;160623.41;5063818;28;20029;-59
2023/12/01 01:09:33;;;;;;;69.07;33.05;;;;;;;0.19;100.00;160623.41;5050829;28;20041;-59
2023/12/01 01:11:58;;;;;;;64.13;32.58;;;;;;;0.18;100.00;160620.78;5051917;28;20021;-58
2023/12/01 01:14:24;;;;;;;61.85;32.42;;;;;;;0.19;100.00;160623.41;5050701;28;20041;-58
2023/12/01 01:16:49;;;;;;;60.28;33.95;;;;;;;0.13;100.00;160607.34;5057238;28;20475;-58
2023/12/01 01:19:14;;;;;;;62.45;36.83;;;;;;;0.12;100.00;160604.66;5070124;28;20021;-58
2023/12/01 01:21:40;;;;;;;66.43;36.92;;;;;;;0.14;100.00;160610.00;5072192;28;20028;-58
2023/12/01 01:24:05;;;;;;;64.50;37.47;;;;;;;0.13;100.00;160607.34;5067949;28;20024;-58
2023/12/01 01:26:31;;;;;;;65.22;36.92;;;;;;;0.16;100.00;160615.41;5051285;28;20028;-57
2023/12/01 01:28:56;;;;;;;71.93;37.38;;;;;;;0.15;100.00;160612.72;5052003;28;20075;-59
2023/12/01 01:31:21;;;;;;;62.00;31.92;;;;;;;0.15;100.00;160612.72;5050223;28;20040;-59
2023/12/01 01:33:47;;;;;;;56.25;31.70;;;;;;;0.20;100.00;160626.09;5051574;28;20031;-59
2023/12/01 01:36:13;;;;;;;70.05;37.17;;;;;;;0.10;100.00;160599.31;5056744;28;20118;-59
2023/12/01 01:38:40;;;;;;;69.78;34.95;;;;;;;0.06;100.00;160589.94;5051725;28;20036;-59
2023/12/01 01:41:07;;;;;;;73.60;40.33;;;;;;;0.05;100.00;160587.25;5049920;28;20127;-59
2023/12/01 01:43:32;;;;;;;67.72;36.08;;;;;;;0.10;100.00;160599.31;5051550;28;20066;-59
2023/12/01 01:46:04;;;;;;;75.10;39.50;;;;;;;0.04;100.00;160583.25;5050296;28;20045;-59
2023/12/01 01:48:30;;;;;;;65.15;40.58;;;;;;;0.01;100.00;160575.19;5051082;28;20036;-59
2023/12/01 01:50:56;;;;;;;60.08;36.80;;;;;;;-0.11;100.00;160545.69;5050130;28;20532;-59
2023/12/01 01:53:23;;;;;;;67.50;39.60;;;;;;;-0.12;100.00;160541.69;5066134;28;20032;-59
2023/12/01 01:55:48;;;;;;;68.75;41.10;;;;;;;-0.13;100.00;160540.34;5069534;28;20074;-59
2023/12/01 01:58:13;;;;;;;61.08;36.10;;;;;;;-0.07;100.00;160556.44;5071081;28;20059;-59
2023/12/01 02:00:40;;;;;;;63.30;34.50;;;;;;;-0.05;100.00;160561.81;5069651;28;20102;-60
2023/12/01 02:03:05;;;;;;;53.28;29.60;;;;;;;0.00;100.00;160573.88;5057733;28;20071;-60
2023/12/01 02:05:33;;;;;;;68.03;35.03;;;;;;;0.05;100.00;160587.25;5049457;28;20045;-60
2023/12/01 02:08:20;;;;;;;52.88;29.73;;;;;;;-0.04;100.00;160564.44;5051658;28;20159;-59
2023/12/01 02:10:45;;;;;;;57.97;34.22;;;;;;;-0.05;100.00;160561.81;5048714;28;20075;-59
2023/12/01 02:13:14;;;;;;;49.40;30.13;;;;;;;-0.07;100.00;160555.06;5063919;28;20024;-60
2023/12/01 02:15:40;;;;;;;57.22;34.53;;;;;;;-0.06;100.00;160559.13;5069670;28;20633;-59
2023/12/01 02:18:21;;;;;;;59.92;35.63;;;;;;;-0.06;100.00;160559.13;5070910;28;20045;-59
2023/12/01 02:20:46;;;;;;;58.03;35.53;;;;;;;-0.06;100.00;160559.13;5056499;28;20037;-59
2023/12/01 02:23:12;;;;;;;61.15;30.25;;;;;;;0.00;100.00;160573.88;5063831;28;20399;-59
2023/12/01 02:25:37;;;;;;;62.40;34.50;;;;;;;0.03;100.00;160580.56;5068958;28;20154;-59
2023/12/01 02:28:02;;;;;;;49.53;30.60;;;;;;;-0.04;100.00;160564.44;5070907;28;20028;-59
2023/12/01 02:30:28;;;;;;;54.20;27.50;;;;;;;-0.01;100.00;160571.19;5068941;28;20137;-59
2023/12/01 02:32:53;;;;;;;55.05;29.58;;;;;;;0.04;100.00;160583.25;5059490;28;20074;-59
2023/12/01 02:35:19;;;;;;;52.78;30.13;;;;;;;0.04;100.00;160584.56;5049274;28;20037;-59
2023/12/01 02:37:44;;;;;;;50.85;27.05;;;;;;;0.10;100.00;160599.31;5051397;28;20447;-59
2023/12/01 02:40:16;;;;;;;50.58;30.15;;;;;;;0.07;100.00;160591.25;5049111;28;20052;-59
2023/12/01 02:42:46;;;;;;;53.45;29.08;;;;;;;0.02;100.00;160577.88;5058971;28;20024;-59
2023/12/01 02:45:11;;;;;;;49.35;27.38;;;;;;;0.07;100.00;160591.25;5069219;28;20045;-59
2023/12/01 02:47:37;;;;;;;51.05;29.27;;;;;;;0.07;100.00;160592.63;5064236;28;20013;-59
2023/12/01 02:50:02;;;;;;;49.28;28.55;;;;;;;0.06;100.00;160589.94;5049360;28;20385;-59
2023/12/01 02:52:28;;;;;;;61.67;33.30;;;;;;;0.11;100.00;160602.00;5056185;28;20379;-59
2023/12/01 02:54:53;;;;;;;52.38;30.13;;;;;;;0.11;100.00;160603.31;5068499;28;20040;-59
2023/12/01 02:57:19;;;;;;;57.38;30.35;;;;;;;0.13;100.00;160607.34;5070336;28;20480;-60
2023/12/01 02:59:44;;;;;;;52.40;30.90;;;;;;;0.10;100.00;160599.31;5066225;28;20070;-60
2023/12/01 03:02:09;;;;;;;57.05;31.45;;;;;;;0.13;100.00;160607.34;5050222;28;20025;-60
2023/12/01 03:04:35;;;;;;;51.25;29.70;;;;;;;0.05;100.00;160585.88;5048873;28;20122;-59
2023/12/01 03:07:04;;;;;;;54.08;29.80;;;;;;;0.09;100.00;160596.63;5050634;28;20400;-58
2023/12/01 03:09:29;;;;;;;;;;;;;;;0.11;100.00;160602.00;5049298;28;20143;-58
2023/12/01 03:11:54;;;;;;;57.78;31.95;;;;;;;-0.15;100.00;160534.97;5051408;28;20387;-58
2023/12/01 03:14:20;;;;;;;53.78;31.80;;;;;;;0.11;100.00;160602.00;5068920;28;20522;-58
2023/12/01 03:16:45;;;;;;;56.75;33.47;;;;;;;0.10;100.00;160599.31;5051923;28;20029;-58
2023/12/01 03:19:10;;;;;;;62.15;33.45;;;;;;;0.07;100.00;160592.63;5048611;28;20021;-58
2023/12/01 03:21:36;;;;;;;58.88;32.45;;;;;;;0.13;100.00;160607.34;5050897;28;20066;-58
2023/12/01 03:24:01;;;;;;;55.35;29.40;;;;;;;0.19;100.00;160622.09;5070450;28;20036;-56
2023/12/01 03:26:27;;;;;;;62.45;33.05;;;;;;;0.21;100.00;160628.78;5074246;28;20048;-58
2023/12/01 03:28:52;;;;;;;65.50;33.30;;;;;;;0.22;100.00;160630.16;5057941;28;20388;-58
2023/12/01 03:31:17;;;;;;;53.35;31.85;;;;;;;0.22;100.00;160631.47;5052192;28;20041;-58
2023/12/01 03:33:43;;;;;;;58.72;31.92;;;;;;;0.17;100.00;160618.09;5054318;28;20036;-59
2023/12/01 03:36:10;;;;;;;61.38;37.17;;;;;;;0.19;100.00;160623.41;5052489;28;20700;-58
2023/12/01 03:38:36;;;;;;;60.78;32.53;;;;;;;0.23;100.00;160634.16;5054128;28;20100;-58
2023/12/01 03:41:02;;;;;;;57.08;32.45;;;;;;;0.20;100.00;160624.78;5052375;28;20495;-58
2023/12/01 03:43:33;;;;;;;65.43;36.03;;;;;;;0.19;100.00;160623.41;5070750;28;20051;-58
2023/12/01 03:45:58;;;;;;;59.65;31.77;;;;;;;0.09;100.00;160596.63;5072298;28;20036;-58
2023/12/01 03:48:24;;;;;;;59.85;34.58;;;;;;;0.18;100.00;160620.78;5073241;28;20035;-58
2023/12/01 03:50:50;;;;;;;56.80;35.42;;;;;;;0.15;100.00;160614.03;5071086;28;20047;-58
2023/12/01 03:53:15;;;;;;;65.78;38.22;;;;;;;0.17;100.00;160618.09;5057995;28;20535;-59
2023/12/01 03:55:41;;;;;;;65.82;34.80;;;;;;;0.14;100.00;160610.00;5052113;28;20037;-59
2023/12/01 03:58:07;;;;;;;83.90;42.90;;;;;;;-0.07;100.00;160556.44;5054007;28;20416;-58
2023/12/01 04:00:32;;;;;;;73.63;45.83;;;;;;;-0.14;100.00;160537.66;5052032;28;20048;-58
2023/12/01 04:02:58;;;;;;;66.47;38.90;;;;;;;-0.21;100.00;160518.91;5064731;28;20025;-58
2023/12/01 04:05:26;;;;;;;72.43;41.05;;;;;;;-0.14;100.00;160536.28;5071915;28;20044;-58
2023/12/01 04:07:52;;;;;;;80.40;50.30;;;;;;;-0.23;100.00;160513.53;5073686;28;20035;-58
2023/12/01 04:10:18;;;;;;;73.88;41.95;;;;;;;-0.41;100.00;160467.97;5061298;28;20454;-58
2023/12/01 04:12:44;;;;;;;75.47;47.67;;;;;;;-0.44;100.00;160459.97;5062775;28;20038;-60
2023/12/01 04:15:18;;;;;;;80.45;47.13;;;;;;;-0.42;100.00;160465.34;5071719;28;20039;-59
2023/12/01 04:17:45;;;;;;;84.13;45.83;;;;;;;-0.43;100.00;160462.66;5072894;28;20032;-59
2023/12/01 04:20:21;;;;;;;75.47;45.67;;;;;;;-0.42;100.00;160465.34;5065535;28;20039;-59
2023/12/01 04:22:51;;;;;;;73.18;35.63;;;;;;;-0.41;100.00;160466.66;5053252;28;20041;-59
2023/12/01 04:25:17;;;;;;;59.50;35.63;;;;;;;-0.43;100.00;160462.66;5051092;28;20045;-58
2023/12/01 04:27:44;;;;;;;72.00;40.92;;;;;;;-0.50;100.00;160443.91;5053147;28;20040;-58
2023/12/01 04:30:14;;;;;;;65.97;39.10;;;;;;;-0.60;100.00;160417.09;5051602;28;20095;-59
2023/12/01 04:32:45;;;;;;;74.30;40.47;;;;;;;-0.60;100.00;160417.09;5060997;28;20069;-58
2023/12/01 04:35:12;;;;;;;71.13;36.55;;;;;;;-0.67;100.00;160401.03;5070475;28;20039;-58
2023/12/01 04:37:37;;;;;;;52.83;31.55;;;;;;;-0.74;100.00;160382.28;5065945;28;20132;-58
2023/12/01 04:40:03;;;;;;;52.72;30.58;;;;;;;-0.61;100.00;160414.41;5051367;28;20124;-58
2023/12/01 04:42:29;;;;;;;63.03;31.50;;;;;;;-0.60;100.00;160418.44;5058884;28;20032;-58
2023/12/01 04:44:54;;;;;;;58.22;31.20;;;;;;;-0.58;100.00;160422.47;5071294;28;20032;-59
2023/12/01 04:47:20;;;;;;;56.72;28.05;;;;;;;-0.57;100.00;160426.47;5067670;28;20479;-58
2023/12/01 04:49:46;;;;;;;52.75;29.65;;;;;;;-0.61;100.00;160414.41;5051092;28;20167;-58
2023/12/01 04:52:11;;;;;;;52.40;30.52;;;;;;;-0.62;100.00;160411.72;5051381;28;20021;-58
2023/12/01 04:54:37;;;;;;;51.15;32.10;;;;;;;-0.62;100.00;160411.72;5050943;28;20094;-58
2023/12/01 04:57:02;;;;;;;55.05;31.73;;;;;;;-0.67;100.00;160401.03;5052228;28;20464;-58
2023/12/01 04:59:28;;;;;;;52.95;29.65;;;;;;;-0.66;100.00;160403.69;5050283;28;20056;-58
2023/12/01 05:01:53;;;;;;;55.67;33.15;;;;;;;-0.66;100.00;160403.69;5056062;28;20029;-58
2023/12/01 05:04:19;;;;;;;48.70;28.08;;;;;;;-0.67;100.00;160399.69;5070673;28;20028;-57
2023/12/01 05:06:44;;;;;;;52.88;29.00;;;;;;;-0.73;100.00;160384.94;5048385;28;20040;-57
2023/12/01 05:09:16;;;;;;;57.17;30.08;;;;;;;-0.72;100.00;160387.63;5030475;28;20017;-58
2023/12/01 05:11:45;;;;;;;53.63;30.70;;;;;;;-0.71;100.00;160388.97;5036945;28;20100;-58
2023/12/01 05:14:10;;;;;;;69.68;34.38;;;;;;;-0.72;100.00;160387.63;5070444;28;20028;-57
2023/12/01 05:16:36;;;;;;;60.08;31.70;;;;;;;-0.88;100.00;160346.09;5056373;28;20021;-56
2023/12/01 05:19:02;;;;;;;59.50;31.35;;;;;;;-0.84;100.00;160355.47;5051896;28;20040;-56
2023/12/01 05:21:27;;;;;;;61.25;32.95;;;;;;;-0.78;100.00;160371.53;5050693;28;20879;-57
2023/12/01 05:23:52;;;;;;;59.55;29.52;;;;;;;-0.81;100.00;160363.53;5071385;28;20094;-58
2023/12/01 05:26:18;;;;;;;60.42;32.15;;;;;;;-0.81;100.00;160363.53;5064081;28;20041;-58
2023/12/01 05:28:43;;;;;;;63.40;32.10;;;;;;;-0.83;100.00;160358.16;5051933;28;20440;-57
2023/12/01 05:31:10;;;;;;;59.28;33.30;;;;;;;-0.89;100.00;160342.09;5049551;28;20045;-58
2023/12/01 05:33:38;;;;;;;66.63;34.28;;;;;;;-0.94;100.00;160328.72;5051857;28;20036;-58
2023/12/01 05:36:08;;;;;;;68.97;34.45;;;;;;;-0.93;100.00;160331.41;5050305;28;20408;-58
2023/12/01 05:38:33;;;;;;;62.67;33.63;;;;;;;-0.95;100.00;160327.34;5051109;28;20096;-58
2023/12/01 05:40:59;;;;;;;84.53;48.30;;;;;;;-1.13;100.00;160280.47;5050338;28;20056;-58
2023/12/01 05:43:24;;;;;;;80.80;46.08;;;;;;;-1.14;100.00;160277.78;5066777;28;20040;-58
2023/12/01 05:45:50;;;;;;;83.18;39.20;;;;;;;-1.18;100.00;160267.09;5062767;28;20098;-57
2023/12/01 05:48:16;;;;;;;62.88;33.42;;;;;;;-1.32;100.00;160230.94;5051585;28;20119;-58
2023/12/01 05:50:42;;;;;;;78.53;37.92;;;;;;;-1.33;100.00;160229.63;5049726;28;20511;-58
2023/12/01 05:53:08;;;;;;;77.80;37.47;;;;;;;-1.28;100.00;160243.00;5051017;28;20021;-58
2023/12/01 05:55:35;;;;;;;62.65;34.50;;;;;;;-1.16;100.00;160273.78;5050049;28;20128;-58
2023/12/01 05:58:04;;;;;;;66.55;35.90;;;;;;;-1.26;100.00;160245.69;5049939;28;20108;-58
2023/12/01 06:00:30;;;;;;;71.13;38.50;;;;;;;-1.31;100.00;160235.00;5047444;28;20106;-58
2023/12/01 06:03:03;;;;;;;59.83;32.65;;;;;;;-1.35;100.00;160224.25;5060799;28;20392;-58
2023/12/01 06:05:29;;;;;;;70.30;33.17;;;;;;;-1.50;100.00;160184.09;5042146;28;20049;-58
2023/12/01 06:07:58;;;;;;;61.95;32.53;;;;;;;-1.44;100.00;160200.16;5048930;28;20388;-58
2023/12/01 06:10:26;;;;;;;69.65;32.60;;;;;;;-1.46;100.00;160194.81;5042008;28;20449;-58
2023/12/01 06:12:52;;;;;;;54.17;27.03;;;;;;;-1.35;100.00;160224.25;5050258;28;20077;-58
2023/12/01 06:15:18;;;;;;;64.88;33.00;;;;;;;-1.29;100.00;160240.31;5053566;28;20499;-58
2023/12/01 06:17:48;;;;;;;66.85;37.80;;;;;;;-1.24;100.00;160251.03;5050200;28;20057;-58
2023/12/01 06:20:19;;;;;;;65.25;34.70;;;;;;;-1.10;100.00;160288.53;5048607;28;20048;-58
2023/12/01 06:22:48;;;;;;;56.22;32.30;;;;;;;-1.09;100.00;160291.22;5048736;28;20029;-58
2023/12/01 06:25:36;;;;;;;65.30;32.95;;;;;;;-1.12;100.00;160283.16;5047761;28;20524;-58
2023/12/01 06:28:03;;;;;;;70.03;31.90;;;;;;;-1.16;100.00;160272.47;5050275;28;20025;-58
2023/12/01 06:30:33;;;;;;;65.00;32.10;;;;;;;-1.15;100.00;160275.09;5051033;28;20144;-57
2023/12/01 06:33:03;;;;;;;63.20;33.78;;;;;;;-1.35;100.00;160222.94;5049795;28;20052;-57
2023/12/01 06:35:28;;;;;;;67.97;38.45;;;;;;;-1.40;100.00;160209.50;5048101;28;20048;-57
2023/12/01 06:37:54;;;;;;;75.47;36.45;;;;;;;-1.33;100.00;160229.63;5048547;28;20060;-58
2023/12/01 06:40:20;;;;;;;57.78;32.22;;;;;;;-1.25;100.00;160248.38;5048381;28;20060;-58
2023/12/01 06:42:46;;;;;;;55.28;27.95;;;;;;;-1.25;100.00;160248.38;5067915;28;20574;-57
2023/12/01 06:45:13;;;;;;;65.95;32.25;;;;;;;-1.18;100.00;160267.09;5052357;28;20037;-57
2023/12/01 06:47:40;;;;;;;67.50;34.50;;;;;;;-1.16;100.00;160272.47;5049757;28;20502;-58
2023/12/01 06:50:10;;;;;;;66.15;29.13;;;;;;;-1.25;100.00;160249.69;5048206;28;20036;-57
2023/12/01 06:52:36;;;;;;;58.65;31.23;;;;;;;-1.33;100.00;160228.25;5048249;28;20037;-57
2023/12/01 06:55:04;;;;;;;58.28;31.10;;;;;;;-1.30;100.00;160237.63;5048802;28;20087;-57
2023/12/01 06:57:29;;;;;;;59.92;29.33;;;;;;;-1.34;100.00;160226.94;5049296;28;20032;-57
2023/12/01 06:59:54;;;;;;;58.55;30.67;;;;;;;-1.36;100.00;160221.56;5040494;28;20044;-58
2023/12/01 07:02:20;;;;;;;56.72;31.30;;;;;;;-1.28;100.00;160243.00;5047136;28;20070;-58
2023/12/01 07:04:46;;;;;;;53.08;27.05;;;;;;;-1.25;100.00;160248.38;5047472;28;20056;-58
2023/12/01 07:07:12;;;;;;;52.67;27.55;;;;;;;-1.22;100.00;160256.38;5045856;28;20480;-58
2023/12/01 07:09:44;;;;;;;52.85;30.05;;;;;;;-1.22;100.00;160256.38;5047540;28;20466;-58
2023/12/01 07:12:09;;;;;;;54.65;27.20;;;;;;;-1.25;100.00;160249.69;5048266;28;20051;-58
2023/12/01 07:14:36;;;;;;;53.25;27.67;;;;;;;-1.21;100.00;160259.06;5040083;28;20492;-58
2023/12/01 07:17:05;;;;;;;59.85;33.22;;;;;;;-1.30;100.00;160236.31;5057800;28;20021;-58
2023/12/01 07:19:31;;;;;;;46.03;27.38;;;;;;;-1.22;100.00;160256.38;5048352;28;20124;-58
2023/12/01 07:21:56;;;;;;;48.17;28.38;;;;;;;-1.20;100.00;160261.75;5046936;28;20029;-57
2023/12/01 07:24:22;;;;;;;48.25;27.25;;;;;;;-1.15;100.00;160275.09;5047931;28;20017;-58
2023/12/01 07:26:51;;;;;;;46.80;23.73;;;;;;;-1.16;100.00;160272.47;5048721;28;20033;-57
2023/12/01 07:29:18;;;;;;;43.10;22.17;;;;;;;-1.11;100.00;160285.84;5045926;28;20021;-57
2023/12/01 07:31:44;;;;;;;44.28;24.08;;;;;;;-1.19;100.00;160264.41;5049366;28;20086;-58
2023/12/01 07:34:11;;;;;;;37.70;22.48;;;;;;;-1.15;100.00;160275.09;5047905;28;20036;-56
2023/12/01 07:36:37;;;;;;;42.08;21.80;;;;;;;-1.18;100.00;160267.09;5048180;28;20049;-56
2023/12/01 07:39:02;;;;;;;46.30;26.30;;;;;;;-1.37;100.00;160218.88;5049219;28;20029;-55
2023/12/01 07:41:28;;;;;;;46.30;27.60;;;;;;;-1.41;100.00;160208.19;5047848;28;20064;-59
2023/12/01 07:43:55;;;;;;;45.53;25.25;;;;;;;-1.44;100.00;160200.16;5048155;28;20024;-55
2023/12/01 07:46:20;;;;;;;61.65;29.23;;;;;;;-1.47;100.00;160192.13;5056498;28;20389;-55
2023/12/01 07:48:46;;;;;;;55.05;28.60;;;;;;;-1.38;100.00;160216.25;5064112;28;20029;-55
2023/12/01 07:51:11;;;;;;;44.22;25.33;;;;;;;-1.46;100.00;160194.81;5045473;28;20033;-56
2023/12/01 07:53:37;;;;;;;47.45;25.40;;;;;;;-1.41;100.00;160206.81;5049455;28;20021;-56
2023/12/01 07:56:02;;;;;;;43.97;25.90;;;;;;;-1.48;100.00;160189.47;5048061;28;20479;-55
2023/12/01 07:58:28;;;;;;;44.55;24.70;;;;;;;-1.42;100.00;160205.50;5047188;28;20033;-55
2023/12/01 08:00:55;;;;;;;41.10;22.48;;;;;;;-1.31;100.00;160233.63;5047551;28;20063;-56
2023/12/01 08:03:21;;;;;;;44.60;23.13;;;;;;;-1.23;100.00;160253.72;5067604;28;20036;-56
2023/12/01 08:05:46;;;;;;;43.25;24.63;;;;;;;-1.27;100.00;160244.34;5066762;28;20044;-56
2023/12/01 08:08:14;;;;;;;42.13;24.38;;;;;;;-1.28;100.00;160243.00;5069445;28;20025;-55
2023/12/01 08:10:39;;;;;;;42.28;21.60;;;;;;;-1.26;100.00;160245.69;5071398;28;20056;-56
2023/12/01 08:13:05;;;;;;;49.35;27.25;;;;;;;-1.30;100.00;160236.31;5054351;28;20073;-55
2023/12/01 08:15:31;;;;;;;42.15;22.60;;;;;;;-1.22;100.00;160256.38;5050183;28;20029;-55
2023/12/01 08:17:58;;;;;;;40.17;23.77;;;;;;;-1.28;100.00;160243.00;5051458;28;20565;-60
2023/12/01 08:20:23;;;;;;;38.05;21.13;;;;;;;-1.22;100.00;160256.38;5044244;28;20040;-55
2023/12/01 08:22:49;;;;;;;65.55;37.58;;;;;;;-1.21;100.00;160259.06;5051938;28;20086;-55
2023/12/01 08:25:15;;;;;;;41.97;23.80;;;;;;;-1.12;100.00;160283.16;5048504;28;20056;-55
2023/12/01 08:27:41;;;;;;;43.60;22.83;;;;;;;-1.06;100.00;160297.91;5051473;28;20028;-55
2023/12/01 08:30:07;;;;;;;38.50;23.10;;;;;;;-1.02;100.00;160309.97;5051381;28;20052;-56
2023/12/01 08:32:33;;;;;;;44.13;24.83;;;;;;;-1.16;100.00;160273.78;5052049;28;20566;-55
2023/12/01 08:34:59;;;;;;;35.38;19.67;;;;;;;-1.09;100.00;160291.22;5061229;28;20059;-56
2023/12/01 08:37:24;;;;;;;31.05;18.83;;;;;;;-1.05;100.00;160300.59;5071693;28;20113;-55
2023/12/01 08:39:50;;;;;;;42.22;21.73;;;;;;;-1.03;100.00;160307.28;5070764;28;20041;-55
2023/12/01 08:42:16;;;;;;;36.60;19.60;;;;;;;-1.07;100.00;160296.53;5063485;28;20028;-55
2023/12/01 08:44:42;;;;;;;40.75;22.48;;;;;;;-1.05;100.00;160301.91;5047440;28;20545;-56
2023/12/01 08:47:08;;;;;;;37.53;21.50;;;;;;;-1.10;100.00;160288.53;5035016;28;20160;-55
2023/12/01 08:49:34;;;;;;;39.00;20.83;;;;;;;-1.33;100.00;160228.25;5034216;28;20106;-56
2023/12/01 08:52:01;;;;;;;39.33;21.65;;;;;;;-1.24;100.00;160251.03;5050393;28;20067;-56
2023/12/01 08:54:26;;;;;;;35.97;22.17;;;;;;;-1.20;100.00;160261.75;5049283;28;20119;-55
2023/12/01 08:56:53;;;;;;;40.50;25.70;;;;;;;-1.26;100.00;160247.00;5042393;28;20079;-55
2023/12/01 08:59:18;;;;;;;33.58;18.73;;;;;;;-1.48;100.00;160189.47;5031429;28;20040;-55
2023/12/01 09:01:44;;;;;;;36.50;23.73;;;;;;;-1.36;100.00;160221.56;5052405;28;20407;-56
2023/12/01 09:04:09;;;;;;;40.30;22.52;;;;;;;-1.30;100.00;160237.63;5050409;28;20033;-56
2023/12/01 09:06:36;;;;;;;44.95;23.90;;;;;;;-1.30;100.00;160237.63;5051707;28;20060;-55
2023/12/01 09:09:02;;;;;;;47.55;28.92;;;;;;;-1.36;100.00;160221.56;5050871;28;20412;-55
2023/12/01 09:11:27;;;;;;;36.83;22.98;;;;;;;-1.17;100.00;160269.78;5050172;28;20037;-55
2023/12/01 09:13:53;;;;;;;42.50;24.30;;;;;;;-1.23;100.00;160253.72;5051806;28;20029;-55
2023/12/01 09:16:20;;;;;;;38.47;22.48;;;;;;;-1.25;100.00;160248.38;5049915;28;20041;-55
2023/12/01 09:18:46;;;;;;;42.88;22.92;;;;;;;-1.29;100.00;160239.00;5051828;28;20392;-55
2023/12/01 09:21:11;;;;;;;34.85;22.73;;;;;;;-1.22;100.00;160257.72;5049514;28;20041;-55
2023/12/01 09:23:40;;;;;;;39.70;21.52;;;;;;;-1.21;100.00;160259.06;5036514;28;20052;-56
2023/12/01 09:26:06;;;;;;;41.38;21.88;;;;;;;-1.38;100.00;160216.25;5046425;28;20106;-54
2023/12/01 09:28:32;;;;;;;38.25;20.67;;;;;;;-1.31;100.00;160233.63;5050707;28;20036;-54
2023/12/01 09:30:58;;;;;;;46.45;25.30;;;;;;;-1.12;100.00;160283.16;5048560;28;20632;-54
2023/12/01 09:33:23;;;;;;;42.17;23.90;;;;;;;-1.07;100.00;160296.53;5058547;28;20041;-54
2023/12/01 09:35:49;;;;;;;58.08;36.92;;;;;;;-1.32;100.00;160232.31;5048901;28;20041;-54
2023/12/01 09:38:14;;;;;;;41.88;25.45;;;;;;;-1.32;100.00;160230.94;5051291;28;20037;-54
2023/12/01 09:40:43;;;;;;;56.13;28.23;;;;;;;-1.29;100.00;160240.31;5061341;28;20041;-54
2023/12/01 09:43:12;;;;;;;36.05;23.52;;;;;;;-1.15;100.00;160276.47;5060701;28;20058;-54
2023/12/01 09:45:37;;;;;;;32.22;22.58;;;;;;;-1.09;100.00;160289.84;5056208;28;20504;-52
2023/12/01 09:48:04;;;;;;;46.05;25.42;;;;;;;-1.15;100.00;160275.09;5059758;28;20036;-54
2023/12/01 09:50:29;;;;;;;43.88;23.80;;;;;;;-1.43;100.00;160202.81;5054178;28;20044;-53
2023/12/01 09:52:55;;;;;;;44.42;24.42;;;;;;;-1.47;100.00;160192.13;5061886;28;20416;-53
2023/12/01 09:55:21;;;;;;;44.70;29.42;;;;;;;-1.42;100.00;160205.50;5049233;28;20029;-52
2023/12/01 09:57:47;;;;;;;46.30;28.02;;;;;;;-1.46;100.00;160194.81;5048486;28;20392;-54
2023/12/01 10:00:12;;;;;;;41.55;26.45;;;;;;;-1.42;100.00;160205.50;5048427;28;20025;-54
2023/12/01 10:02:39;;;;;;;36.03;21.65;;;;;;;-1.31;100.00;160233.63;5051721;28;20020;-56
2023/12/01 10:05:06;;;;;;;42.05;20.33;;;;;;;-1.33;100.00;160229.63;5048115;28;20040;-54
2023/12/01 10:07:32;;;;;;;38.67;25.08;;;;;;;-1.36;100.00;160221.56;5050312;28;20029;-54
2023/12/01 10:09:58;;;;;;;35.22;21.17;;;;;;;-1.40;100.00;160210.88;5048764;28;20031;-54
2023/12/01 10:12:23;;;;;;;37.13;21.38;;;;;;;-1.24;100.00;160251.03;5052332;28;20029;-54
2023/12/01 10:14:49;;;;;;;41.97;25.45;;;;;;;-1.20;100.00;160261.75;5068856;28;20501;-54
2023/12/01 10:17:14;;;;;;;42.78;21.80;;;;;;;-1.09;100.00;160291.22;5068716;28;20048;-54
2023/12/01 10:19:45;;;;;;;42.65;22.23;;;;;;;-1.16;100.00;160272.47;5049731;28;20057;-54
2023/12/01 10:22:17;;;;;;;34.42;22.50;;;;;;;-1.12;100.00;160283.16;5048454;28;20037;-53
2023/12/01 10:25:05;;;;;;;32.10;20.13;;;;;;;-1.13;100.00;160280.47;5050139;28;20017;-54
2023/12/01 10:27:31;;;;;;;40.85;24.33;;;;;;;-1.39;100.00;160213.56;5068551;28;20044;-54
2023/12/01 10:30:15;;;;;;;52.00;29.73;;;;;;;-1.43;100.00;160202.81;5069267;28;20119;-54
2023/12/01 10:32:43;;;;;;;33.35;20.73;;;;;;;-1.41;100.00;160208.19;5063868;28;20476;-54
2023/12/01 10:35:08;;;;;;;31.02;16.33;;;;;;;-1.39;100.00;160212.19;5048531;28;20033;-53
2023/12/01 10:37:37;;;;;;;31.15;18.23;;;;;;;-1.48;100.00;160189.47;5050429;28;20055;-56
2023/12/01 10:40:05;;;;;;;;;;;;;;;-1.14;100.00;160277.78;5049540;28;20518;-55
2023/12/01 10:42:32;;;;;;;31.15;20.77;;;;;;;-1.10;100.00;160288.53;5044341;28;19921;-54
2023/12/01 10:45:00;;;;;;;64.10;30.70;;;;;;;-1.05;100.00;160301.91;5036521;28;20048;-54
2023/12/01 10:47:27;;;;;;;93.15;42.85;;;;;;;-1.00;100.00;160315.28;5029986;28;20032;-54
2023/12/01 10:49:55;;;;;;;37.75;21.55;;;;;;;-0.85;100.00;160352.78;5042240;28;20091;-54
2023/12/01 10:52:20;;;;;;;35.53;21.88;;;;;;;-0.73;100.00;160383.59;5049607;28;20082;-54
2023/12/01 10:54:46;;;;;;;36.28;20.65;;;;;;;-0.75;100.00;160378.25;5048606;28;20041;-54
2023/12/01 10:57:30;;;;;;;32.17;17.63;;;;;;;-0.74;100.00;160382.28;5049103;28;20037;-54
2023/12/01 11:00:00;;;;;;;32.00;19.90;;;;;;;-0.69;100.00;160394.31;5047357;28;20123;-55
2023/12/01 11:02:27;;;;;;;34.45;21.42;;;;;;;-0.70;100.00;160392.97;5049540;28;20025;-56